Time;durP1;ratioP1;P1;durP2;ratioP2;P2;SDS_P1;SDS_P2;PMS_P1;PMS_P2;Temp;Humidity;BMP_temperature;BMP_pressure;BME280_temperature;BME280_humidity;BME280_pressure;Samples;Min_cycle;Max_cycle;Signal;HPM_P1;HPM_P2
2021/07/01 00:02:08;;;;;;;5.75;3.53;;;14.80;99.90;;;;;;5067905;28;20387;-69
2021/07/01 00:04:48;;;;;;;6.00;3.78;;;14.70;99.90;;;;;;5107590;27;20375;-68
2021/07/01 00:07:28;;;;;;;6.18;3.53;;;14.70;99.90;;;;;;5087421;27;20403;-68
2021/07/01 00:10:18;;;;;;;6.60;4.53;;;14.70;99.90;;;;;;5108578;27;20384;-68
2021/07/01 00:12:58;;;;;;;5.28;3.95;;;14.70;99.90;;;;;;5057529;28;20956;-67
2021/07/01 00:15:36;;;;;;;6.05;4.35;;;14.60;99.90;;;;;;5069912;27;20443;-69
2021/07/01 00:18:16;;;;;;;5.85;4.30;;;14.60;99.90;;;;;;5088499;28;20498;-68
2021/07/01 00:20:56;;;;;;;5.97;4.55;;;14.60;99.90;;;;;;5088353;27;20818;-68
2021/07/01 00:23:36;;;;;;;6.88;5.00;;;14.50;99.90;;;;;;5074320;27;20391;-69
2021/07/01 00:26:16;;;;;;;8.05;5.35;;;14.50;99.90;;;;;;5067714;28;20765;-67
2021/07/01 00:28:59;;;;;;;7.38;5.55;;;14.50;99.90;;;;;;5054135;28;20405;-68
2021/07/01 00:31:38;;;;;;;5.80;5.20;;;14.50;99.90;;;;;;5068444;28;20481;-68
2021/07/01 00:34:18;;;;;;;6.18;4.82;;;14.50;99.90;;;;;;5048833;28;20388;-68
2021/07/01 00:36:58;;;;;;;8.70;5.47;;;14.50;99.90;;;;;;5068279;28;20500;-69
2021/07/01 00:39:38;;;;;;;8.43;4.75;;;14.50;99.90;;;;;;5068170;28;20433;-68
2021/07/01 00:42:18;;;;;;;9.70;5.40;;;14.50;99.90;;;;;;5108457;27;20406;-69
2021/07/01 00:44:58;;;;;;;7.65;5.10;;;14.50;99.90;;;;;;5064408;28;20440;-69
2021/07/01 00:47:39;;;;;;;8.23;5.60;;;14.50;99.90;;;;;;5068327;28;20433;-68
2021/07/01 00:50:19;;;;;;;7.97;4.43;;;14.50;99.90;;;;;;5067277;28;20512;-69
2021/07/01 00:52:59;;;;;;;6.07;5.10;;;14.50;99.90;;;;;;5112342;27;20473;-68
2021/07/01 00:55:38;;;;;;;8.75;4.70;;;14.50;99.90;;;;;;5128982;27;20436;-67
2021/07/01 00:58:19;;;;;;;6.28;5.15;;;14.50;99.90;;;;;;5107873;27;20603;-69
2021/07/01 01:01:01;;;;;;;8.38;5.00;;;14.50;99.90;;;;;;5109230;27;20886;-67
2021/07/01 01:03:42;;;;;;;7.38;5.30;;;14.50;99.90;;;;;;5064988;28;20383;-68
2021/07/01 01:06:24;;;;;;;7.47;4.90;;;14.50;99.90;;;;;;5087989;27;20896;-68
2021/07/01 01:09:06;;;;;;;8.07;5.35;;;14.50;99.90;;;;;;5128447;27;20100;-68
2021/07/01 01:11:45;;;;;;;7.40;5.18;;;14.50;99.90;;;;;;5074127;27;20492;-69
2021/07/01 01:14:28;;;;;;;7.50;5.28;;;14.40;99.90;;;;;;5088822;28;20548;-68
2021/07/01 01:17:15;;;;;;;6.60;4.95;;;14.40;99.90;;;;;;5070500;28;20098;-68
2021/07/01 01:19:54;;;;;;;8.50;5.53;;;14.50;99.90;;;;;;5067990;28;20452;-67
2021/07/01 01:22:34;;;;;;;10.23;5.60;;;14.40;99.90;;;;;;5085452;27;20739;-69
2021/07/01 01:25:14;;;;;;;6.90;5.22;;;14.50;99.90;;;;;;5112379;27;20105;-68
2021/07/01 01:27:55;;;;;;;11.25;5.72;;;14.40;99.90;;;;;;5067040;28;20468;-68
2021/07/01 01:30:39;;;;;;;6.40;5.70;;;14.40;99.90;;;;;;5109372;27;20481;-68
2021/07/01 01:33:20;;;;;;;7.22;6.28;;;14.40;99.90;;;;;;5108862;27;20483;-67
2021/07/01 01:36:01;;;;;;;7.82;5.75;;;14.30;99.90;;;;;;5114740;27;20393;-68
2021/07/01 01:38:41;;;;;;;6.97;6.03;;;14.40;99.90;;;;;;5055795;28;20442;-68
2021/07/01 01:41:43;;;;;;;7.43;6.03;;;14.40;99.90;;;;;;5061927;28;20522;-67
2021/07/01 01:44:23;;;;;;;7.90;6.32;;;14.40;99.90;;;;;;5053742;28;20443;-68
2021/07/01 01:47:12;;;;;;;7.35;5.70;;;14.40;99.90;;;;;;5079853;28;20117;-68
2021/07/01 01:49:52;;;;;;;8.65;6.43;;;14.40;99.90;;;;;;5123363;27;20123;-68
2021/07/01 01:52:32;;;;;;;7.80;6.20;;;14.40;99.90;;;;;;5107278;27;20401;-69
2021/07/01 01:55:14;;;;;;;12.85;6.13;;;14.40;99.90;;;;;;5111050;27;20588;-67
2021/07/01 01:57:56;;;;;;;6.78;6.07;;;14.30;99.90;;;;;;5107944;27;20381;-68
2021/07/01 02:00:55;;;;;;;7.10;6.00;;;14.30;99.90;;;;;;5128503;27;20382;-68
2021/07/01 02:03:35;;;;;;;6.53;5.40;;;14.30;99.90;;;;;;5088433;28;20124;-68
2021/07/01 02:06:24;;;;;;;6.43;5.03;;;14.30;99.90;;;;;;5126284;27;20103;-68
2021/07/01 02:09:05;;;;;;;6.82;5.07;;;14.30;99.90;;;;;;5087031;28;20429;-68
2021/07/01 02:11:54;;;;;;;9.23;5.70;;;14.30;99.90;;;;;;5064717;28;20460;-68
2021/07/01 02:14:35;;;;;;;6.60;5.25;;;14.30;99.90;;;;;;5088581;28;20114;-68
2021/07/01 02:17:24;;;;;;;7.68;5.47;;;14.30;99.90;;;;;;5095662;27;20326;-68
2021/07/01 02:20:10;;;;;;;8.13;5.15;;;14.20;99.90;;;;;;5067058;28;20121;-68
2021/07/01 02:22:51;;;;;;;5.65;4.88;;;14.10;99.90;;;;;;5057959;28;20907;-68
2021/07/01 02:25:38;;;;;;;7.32;5.13;;;14.00;99.90;;;;;;5103647;27;20120;-69
2021/07/01 02:28:23;;;;;;;6.25;5.20;;;14.00;99.90;;;;;;5081362;28;20463;-68
2021/07/01 02:31:21;;;;;;;7.95;4.90;;;13.90;99.90;;;;;;5066964;28;20958;-68
2021/07/01 02:34:02;;;;;;;5.72;4.85;;;13.90;99.90;;;;;;5084191;28;20619;-69
2021/07/01 02:37:02;;;;;;;5.22;4.03;;;13.90;99.90;;;;;;5057748;28;20437;-68
2021/07/01 02:40:15;;;;;;;4.53;3.50;;;13.90;99.90;;;;;;5079749;28;20125;-68
2021/07/01 02:43:15;;;;;;;6.60;4.03;;;13.90;99.90;;;;;;5082460;28;20573;-68
2021/07/01 02:46:14;;;;;;;4.63;3.50;;;13.80;99.90;;;;;;5128128;27;20420;-68
2021/07/01 02:48:53;;;;;;;5.15;3.80;;;13.80;99.90;;;;;;5058157;28;20403;-68
2021/07/01 02:51:33;;;;;;;5.28;3.53;;;13.80;99.90;;;;;;5101050;27;20478;-68
2021/07/01 02:54:13;;;;;;;4.32;3.40;;;13.80;99.90;;;;;;5067825;28;20444;-68
2021/07/01 02:56:53;;;;;;;5.28;3.13;;;13.90;99.90;;;;;;5077714;28;20499;-66
2021/07/01 02:59:34;;;;;;;4.38;2.67;;;13.80;99.90;;;;;;5008566;28;20387;-68
2021/07/01 03:02:21;;;;;;;4.20;2.95;;;13.80;99.90;;;;;;5087246;28;20112;-68
2021/07/01 03:05:21;;;;;;;3.65;2.85;;;13.70;99.90;;;;;;5085135;28;20114;-68
2021/07/01 03:08:01;;;;;;;4.95;2.65;;;13.70;99.90;;;;;;5068056;28;20387;-69
2021/07/01 03:10:41;;;;;;;3.97;2.85;;;13.70;99.90;;;;;;5106816;27;21026;-68
2021/07/01 03:13:34;;;;;;;3.83;2.83;;;13.70;99.90;;;;;;5058942;28;20400;-67
2021/07/01 03:16:20;;;;;;;6.53;3.05;;;13.70;99.90;;;;;;5075878;27;20387;-68
2021/07/01 03:19:00;;;;;;;3.45;2.47;;;13.80;99.90;;;;;;5061683;28;20896;-68
2021/07/01 03:21:59;;;;;;;3.33;2.22;;;13.70;99.90;;;;;;5111104;27;20119;-67
2021/07/01 03:24:39;;;;;;;4.60;3.10;;;13.60;99.90;;;;;;5077293;28;20118;-68
2021/07/01 03:27:20;;;;;;;4.00;2.60;;;13.60;99.90;;;;;;5087789;28;20725;-68
2021/07/01 03:30:00;;;;;;;3.60;2.35;;;13.60;99.90;;;;;;5055779;28;20118;-68
2021/07/01 03:32:40;;;;;;;3.60;2.25;;;13.60;99.90;;;;;;5107847;27;20120;-67
2021/07/01 03:35:20;;;;;;;4.00;2.05;;;13.60;99.90;;;;;;5073345;28;20110;-68
2021/07/01 03:38:18;;;;;;;3.10;1.90;;;13.60;99.90;;;;;;5126521;27;20311;-68
2021/07/01 03:41:17;;;;;;;5.55;2.10;;;13.60;99.90;;;;;;5089547;28;20297;-68
2021/07/01 03:43:57;;;;;;;3.42;2.17;;;13.60;99.90;;;;;;5067794;28;20879;-67
2021/07/01 03:46:37;;;;;;;3.42;1.90;;;13.60;99.90;;;;;;5065278;28;20449;-68
2021/07/01 03:49:17;;;;;;;2.97;1.67;;;13.60;99.90;;;;;;5068362;28;20391;-68
2021/07/01 03:52:36;;;;;;;2.78;1.70;;;13.60;99.90;;;;;;5127672;27;20116;-68
2021/07/01 03:55:17;;;;;;;3.30;1.95;;;13.70;99.90;;;;;;5068394;28;20398;-67
2021/07/01 03:57:56;;;;;;;3.42;1.60;;;13.80;99.90;;;;;;5068732;28;20520;-68
2021/07/01 04:00:37;;;;;;;3.63;1.70;;;13.70;99.90;;;;;;5088271;27;20912;-67
2021/07/01 04:03:19;;;;;;;2.00;1.40;;;13.70;99.90;;;;;;5069716;28;20972;-69
2021/07/01 04:06:35;;;;;;;3.00;1.40;;;13.80;99.90;;;;;;5088590;28;20135;-69
2021/07/01 04:09:14;;;;;;;3.58;1.20;;;13.80;99.90;;;;;;5083868;28;20456;-67
2021/07/01 04:12:09;;;;;;;4.53;1.40;;;13.80;99.90;;;;;;5089430;27;20378;-69
2021/07/01 04:15:08;;;;;;;2.60;1.42;;;13.90;99.90;;;;;;5074299;28;20221;-68
2021/07/01 04:18:08;;;;;;;1.85;1.10;;;13.90;99.90;;;;;;5069243;28;20516;-67
2021/07/01 04:21:07;;;;;;;1.95;1.20;;;13.90;99.90;;;;;;5064643;28;20394;-68
2021/07/01 04:24:06;;;;;;;2.83;1.20;;;13.90;99.90;;;;;;5048046;28;20130;-68
2021/07/01 04:27:04;;;;;;;2.40;1.25;;;14.00;99.90;;;;;;5129479;27;20306;-68
2021/07/01 04:29:53;;;;;;;2.42;1.30;;;14.00;99.90;;;;;;5129157;27;20303;-67
2021/07/01 04:32:36;;;;;;;4.43;1.52;;;13.90;99.90;;;;;;5076420;27;20383;-67
2021/07/01 04:35:16;;;;;;;2.20;1.17;;;13.90;99.90;;;;;;5085165;28;20113;-67
2021/07/01 04:37:55;;;;;;;2.53;1.45;;;13.90;99.90;;;;;;5125988;27;20459;-67
2021/07/01 04:40:35;;;;;;;2.20;1.13;;;13.90;99.90;;;;;;5057779;28;20518;-68
2021/07/01 04:43:15;;;;;;;4.38;1.75;;;13.80;99.90;;;;;;5059475;28;20553;-68
2021/07/01 04:45:55;;;;;;;4.88;2.00;;;13.80;99.90;;;;;;5116926;27;20117;-68
2021/07/01 04:48:35;;;;;;;4.20;1.60;;;13.80;99.90;;;;;;5059341;28;20400;-68
2021/07/01 04:51:15;;;;;;;3.00;1.48;;;13.80;99.90;;;;;;5102955;27;20378;-68
2021/07/01 04:54:14;;;;;;;4.03;1.65;;;13.80;99.90;;;;;;5128663;27;20102;-67
2021/07/01 04:57:12;;;;;;;3.50;1.60;;;13.70;99.90;;;;;;5108621;27;20544;-69
2021/07/01 04:59:52;;;;;;;2.35;1.27;;;13.70;99.90;;;;;;5116777;27;20119;-68
2021/07/01 05:02:56;;;;;;;3.13;1.33;;;13.70;99.90;;;;;;5062803;28;20576;-68
2021/07/01 05:05:37;;;;;;;3.15;1.48;;;13.70;99.90;;;;;;5083885;27;20506;-68
2021/07/01 05:08:17;;;;;;;3.13;1.70;;;13.70;99.90;;;;;;5063630;28;20878;-68
2021/07/01 05:11:00;;;;;;;2.55;1.30;;;13.70;99.90;;;;;;5068865;28;20520;-68
2021/07/01 05:13:40;;;;;;;4.15;1.50;;;13.70;99.90;;;;;;5087824;28;20113;-68
2021/07/01 05:16:22;;;;;;;2.65;1.20;;;13.70;99.90;;;;;;5085918;28;20483;-68
2021/07/01 05:19:04;;;;;;;2.83;1.13;;;13.70;99.90;;;;;;5068342;28;20962;-67
2021/07/01 05:22:07;;;;;;;4.85;1.55;;;13.70;99.90;;;;;;5082776;28;20110;-68
2021/07/01 05:25:06;;;;;;;3.00;1.40;;;13.70;99.90;;;;;;5043627;28;20518;-68
2021/07/01 05:28:11;;;;;;;3.40;1.23;;;13.70;99.90;;;;;;5068911;28;20484;-68
2021/07/01 05:31:11;;;;;;;2.50;1.35;;;13.90;99.90;;;;;;5086422;27;20400;-67
2021/07/01 05:34:22;;;;;;;3.78;1.38;;;13.90;99.90;;;;;;5069571;28;20387;-68
2021/07/01 05:37:03;;;;;;;4.40;1.25;;;14.00;99.90;;;;;;5068756;28;20501;-68
2021/07/01 05:39:46;;;;;;;5.47;1.60;;;14.20;99.90;;;;;;5084835;27;20382;-69
2021/07/01 05:42:26;;;;;;;2.47;1.20;;;14.20;99.90;;;;;;5142599;27;20387;-68
2021/07/01 05:45:06;;;;;;;2.33;1.20;;;14.30;99.90;;;;;;5084191;27;20842;-69
2021/07/01 05:47:46;;;;;;;2.63;1.23;;;14.40;99.90;;;;;;5104215;27;20388;-68
2021/07/01 05:50:26;;;;;;;2.00;1.20;;;14.50;99.90;;;;;;5101229;27;20376;-68
2021/07/01 05:53:07;;;;;;;4.75;1.35;;;14.60;99.90;;;;;;5054715;28;20506;-68
2021/07/01 05:55:47;;;;;;;2.72;1.30;;;14.60;99.90;;;;;;5036746;28;20417;-68
2021/07/01 05:58:27;;;;;;;4.78;2.08;;;14.60;99.90;;;;;;5078318;27;20760;-68
2021/07/01 06:01:08;;;;;;;5.68;1.65;;;14.70;99.90;;;;;;5063410;28;20395;-68
2021/07/01 06:03:48;;;;;;;3.65;2.28;;;14.70;99.90;;;;;;5062276;28;20504;-68
2021/07/01 06:06:52;;;;;;;2.60;1.30;;;14.70;99.90;;;;;;5107666;27;20485;-68
2021/07/01 06:09:46;;;;;;;3.10;1.40;;;14.60;99.90;;;;;;5069455;28;20394;-68
2021/07/01 06:12:30;;;;;;;3.10;1.60;;;14.60;99.90;;;;;;5082387;27;20401;-68
2021/07/01 06:15:13;;;;;;;3.75;1.40;;;14.60;99.90;;;;;;5068445;28;20504;-68
2021/07/01 06:17:54;;;;;;;2.83;1.33;;;14.60;99.90;;;;;;5064720;28;20992;-68
2021/07/01 06:20:33;;;;;;;3.40;1.60;;;14.80;99.90;;;;;;5125298;27;20387;-68
2021/07/01 06:23:13;;;;;;;6.53;2.05;;;14.90;99.90;;;;;;5065654;27;20856;-68
2021/07/01 06:25:54;;;;;;;5.53;2.20;;;15.00;99.90;;;;;;5064193;28;20392;-68
2021/07/01 06:28:40;;;;;;;2.63;1.45;;;15.10;99.90;;;;;;5105144;27;20857;-68
2021/07/01 06:31:20;;;;;;;3.38;1.67;;;15.20;99.90;;;;;;5068122;28;20877;-68
2021/07/01 06:34:00;;;;;;;6.03;2.00;;;15.10;99.90;;;;;;5064478;28;20889;-68
2021/07/01 06:36:43;;;;;;;3.47;1.85;;;14.90;99.90;;;;;;5068950;28;20449;-68
2021/07/01 06:39:43;;;;;;;3.95;1.90;;;15.10;99.90;;;;;;5066561;28;20384;-68
2021/07/01 06:42:47;;;;;;;3.80;2.20;;;15.20;99.90;;;;;;5067540;28;20379;-67
2021/07/01 06:45:49;;;;;;;3.47;1.95;;;15.00;99.90;;;;;;5088541;27;20850;-68
2021/07/01 06:48:48;;;;;;;4.25;2.40;;;14.90;99.90;;;;;;5108705;27;20387;-68
2021/07/01 06:51:50;;;;;;;4.07;2.45;;;14.90;99.90;;;;;;5089494;27;20910;-69
2021/07/01 06:54:49;;;;;;;4.93;2.58;;;15.00;99.90;;;;;;5068738;28;20394;-68
2021/07/01 06:57:48;;;;;;;4.38;2.63;;;15.10;99.90;;;;;;5068370;28;20387;-68
2021/07/01 07:00:27;;;;;;;7.03;3.45;;;15.10;99.90;;;;;;5068421;28;20440;-68
2021/07/01 07:03:07;;;;;;;5.53;3.03;;;15.20;99.90;;;;;;5061083;28;20518;-69
2021/07/01 07:05:52;;;;;;;4.10;2.70;;;15.20;99.90;;;;;;5088256;27;20377;-69
2021/07/01 07:08:32;;;;;;;6.18;3.88;;;15.20;99.90;;;;;;5059141;28;20515;-68
2021/07/01 07:11:11;;;;;;;5.05;3.22;;;15.30;99.90;;;;;;5025055;28;20138;-69
2021/07/01 07:13:51;;;;;;;6.60;4.25;;;15.20;99.90;;;;;;5056131;28;20441;-69
2021/07/01 07:16:34;;;;;;;5.97;3.92;;;15.10;99.90;;;;;;5075167;28;20121;-69
2021/07/01 07:19:15;;;;;;;8.55;4.20;;;15.20;99.90;;;;;;5086401;28;20098;-69
2021/07/01 07:22:10;;;;;;;6.55;4.57;;;15.20;99.90;;;;;;5086899;28;20319;-69
2021/07/01 07:24:53;;;;;;;8.55;4.82;;;15.10;99.90;;;;;;5059409;28;20389;-68
2021/07/01 07:27:35;;;;;;;8.73;4.57;;;15.30;99.90;;;;;;5101254;27;20115;-69
2021/07/01 07:30:17;;;;;;;6.32;4.80;;;15.50;99.90;;;;;;5122452;27;20112;-70
2021/07/01 07:33:04;;;;;;;7.22;5.25;;;15.80;99.90;;;;;;5058666;28;20824;-69
2021/07/01 07:35:47;;;;;;;9.82;5.68;;;16.10;99.90;;;;;;5111427;27;20112;-68
2021/07/01 07:38:27;;;;;;;7.70;5.60;;;16.40;99.90;;;;;;5067711;28;20115;-68
2021/07/01 07:41:06;;;;;;;8.35;5.68;;;16.50;99.90;;;;;;5071265;28;20484;-68
2021/07/01 07:43:48;;;;;;;13.95;5.97;;;16.40;99.90;;;;;;5126451;27;20469;-69
2021/07/01 07:46:31;;;;;;;9.35;6.55;;;16.20;99.90;;;;;;5123997;27;20714;-69
2021/07/01 07:49:24;;;;;;;10.65;6.90;;;16.20;99.90;;;;;;5115075;27;20121;-68
2021/07/01 07:52:08;;;;;;;10.10;7.18;;;15.80;99.90;;;;;;5066815;28;20138;-68
2021/07/01 07:54:51;;;;;;;11.05;7.18;;;15.80;99.90;;;;;;5071490;28;20569;-67
2021/07/01 07:57:33;;;;;;;10.95;7.60;;;15.70;99.90;;;;;;5049322;28;20453;-68
2021/07/01 08:00:14;;;;;;;10.75;7.70;;;15.80;99.90;;;;;;5040193;28;20126;-68
2021/07/01 08:02:59;;;;;;;8.98;6.50;;;15.90;99.90;;;;;;5060013;28;20574;-68
2021/07/01 08:05:39;;;;;;;9.82;7.45;;;16.00;99.90;;;;;;5079872;28;20117;-69
2021/07/01 08:08:22;;;;;;;9.32;6.78;;;15.80;99.90;;;;;;5058986;28;20392;-68
2021/07/01 08:11:04;;;;;;;10.25;6.72;;;15.70;99.90;;;;;;5068188;28;20379;-69
2021/07/01 08:13:47;;;;;;;9.00;5.68;;;15.70;99.90;;;;;;5067285;28;20409;-68
2021/07/01 08:16:26;;;;;;;11.32;6.60;;;15.70;99.90;;;;;;5062342;28;20457;-68
2021/07/01 08:19:06;;;;;;;9.18;5.63;;;15.60;99.90;;;;;;5060228;28;20379;-68
2021/07/01 08:21:57;;;;;;;8.75;5.82;;;15.60;99.90;;;;;;5128880;27;20371;-67
2021/07/01 08:24:38;;;;;;;10.30;5.05;;;15.60;99.90;;;;;;5076286;28;20112;-67
2021/07/01 08:27:19;;;;;;;8.07;5.40;;;15.60;99.90;;;;;;5067963;28;20375;-68
2021/07/01 08:29:58;;;;;;;6.80;4.30;;;15.70;99.90;;;;;;5048245;28;20739;-68
2021/07/01 08:32:39;;;;;;;6.43;3.83;;;16.00;99.90;;;;;;5052160;28;20432;-68
2021/07/01 08:35:21;;;;;;;5.18;3.25;;;16.10;99.90;;;;;;5065086;28;20394;-68
2021/07/01 08:38:04;;;;;;;5.47;3.20;;;16.10;99.90;;;;;;5059144;28;20790;-68
2021/07/01 08:40:47;;;;;;;5.25;3.10;;;16.40;99.90;;;;;;5052867;28;20751;-68
2021/07/01 08:43:41;;;;;;;8.52;3.05;;;16.50;99.90;;;;;;5051927;28;20388;-68
2021/07/01 08:46:29;;;;;;;5.10;2.70;;;16.70;99.90;;;;;;5078284;27;20436;-67
2021/07/01 08:49:10;;;;;;;4.13;2.70;;;17.00;99.90;;;;;;5055605;28;20782;-67
2021/07/01 08:51:49;;;;;;;3.70;2.30;;;17.10;99.90;;;;;;5035275;28;20445;-66
2021/07/01 08:54:32;;;;;;;4.35;2.13;;;17.10;99.90;;;;;;5051917;28;20389;-69
2021/07/01 08:57:13;;;;;;;3.30;1.83;;;17.50;99.90;;;;;;5052628;28;20377;-68
2021/07/01 09:00:04;;;;;;;3.65;2.38;;;17.60;99.90;;;;;;5086771;27;20431;-68
2021/07/01 09:02:53;;;;;;;3.75;1.98;;;17.70;99.90;;;;;;5050281;28;20106;-69
2021/07/01 09:05:35;;;;;;;4.80;2.17;;;17.40;99.90;;;;;;5053953;28;20377;-69
2021/07/01 09:08:22;;;;;;;3.85;2.10;;;17.10;99.90;;;;;;5074136;28;20106;-67
2021/07/01 09:11:01;;;;;;;4.55;2.38;;;16.70;99.90;;;;;;5068781;28;20467;-69
2021/07/01 09:13:45;;;;;;;4.15;1.83;;;16.40;99.90;;;;;;5027682;28;20562;-68
2021/07/01 09:16:28;;;;;;;3.47;2.00;;;16.50;99.90;;;;;;5095020;28;20389;-69
2021/07/01 09:19:09;;;;;;;4.75;1.75;;;16.70;99.90;;;;;;5114483;27;20115;-67
2021/07/01 09:21:51;;;;;;;5.13;2.22;;;16.80;99.90;;;;;;5080848;28;20315;-68
2021/07/01 09:24:37;;;;;;;3.63;2.03;;;17.10;99.90;;;;;;5038235;28;20123;-68
2021/07/01 09:27:17;;;;;;;3.72;2.42;;;17.50;99.90;;;;;;5117151;27;20106;-69
2021/07/01 09:30:00;;;;;;;4.03;2.13;;;17.60;99.90;;;;;;5063060;28;20429;-68
2021/07/01 09:32:42;;;;;;;3.40;1.92;;;18.10;99.90;;;;;;5065129;28;20308;-68
2021/07/01 09:35:23;;;;;;;4.88;2.10;;;18.50;99.90;;;;;;5061393;28;20444;-68
2021/07/01 09:38:06;;;;;;;6.25;2.58;;;18.60;99.90;;;;;;5064880;28;20388;-69
2021/07/01 09:40:46;;;;;;;5.25;2.42;;;18.80;99.90;;;;;;5067573;28;20440;-68
2021/07/01 09:43:27;;;;;;;6.57;2.20;;;18.90;99.90;;;;;;5097587;27;20401;-69
2021/07/01 09:46:13;;;;;;;5.45;2.80;;;19.30;99.90;;;;;;5053598;28;20377;-69
2021/07/01 09:48:56;;;;;;;3.30;2.08;;;19.40;99.90;;;;;;5129169;27;20429;-68
2021/07/01 09:51:37;;;;;;;4.68;2.28;;;19.20;99.90;;;;;;5067329;28;20444;-68
2021/07/01 09:54:20;;;;;;;4.40;2.80;;;18.50;99.90;;;;;;5068381;28;20379;-69
2021/07/01 09:57:07;;;;;;;5.00;2.58;;;18.20;99.90;;;;;;5067976;28;20939;-69
2021/07/01 09:59:53;;;;;;;4.70;2.40;;;17.60;99.90;;;;;;5101226;27;20697;-68
2021/07/01 10:02:34;;;;;;;6.43;2.80;;;17.60;99.90;;;;;;5088055;28;20123;-68
2021/07/01 10:05:27;;;;;;;5.75;2.67;;;17.50;99.90;;;;;;5105812;27;20376;-70
2021/07/01 10:08:08;;;;;;;3.42;2.35;;;17.50;99.90;;;;;;5114537;27;20131;-68
2021/07/01 10:10:49;;;;;;;3.55;1.98;;;17.60;99.90;;;;;;5068049;28;20375;-69
2021/07/01 10:13:28;;;;;;;3.85;2.10;;;17.60;99.90;;;;;;5064569;28;20383;-69
2021/07/01 10:16:10;;;;;;;3.88;2.42;;;17.60;99.90;;;;;;5068627;28;20677;-69
2021/07/01 10:18:49;;;;;;;4.57;2.13;;;17.60;99.90;;;;;;5067477;28;20432;-68
2021/07/01 10:21:31;;;;;;;4.75;1.73;;;17.40;99.90;;;;;;5108462;27;20388;-67
2021/07/01 10:24:14;;;;;;;4.78;1.58;;;17.10;99.90;;;;;;5061304;28;20426;-68
2021/07/01 10:26:53;;;;;;;3.83;1.60;;;17.00;99.90;;;;;;5148030;27;20389;-68
2021/07/01 10:29:40;;;;;;;4.93;3.17;;;17.00;99.90;;;;;;5068396;28;20742;-68
2021/07/01 10:32:35;;;;;;;3.83;1.90;;;17.40;99.90;;;;;;5067989;27;20441;-67
2021/07/01 10:35:26;;;;;;;3.67;1.85;;;17.70;99.90;;;;;;5057966;28;20778;-69
2021/07/01 10:38:13;;;;;;;4.63;1.92;;;18.00;99.90;;;;;;5055690;28;20391;-69
2021/07/01 10:40:55;;;;;;;5.95;1.98;;;18.20;99.90;;;;;;5054700;28;20458;-69
2021/07/01 10:43:46;;;;;;;4.32;2.10;;;18.50;99.90;;;;;;5067809;28;20376;-69
2021/07/01 10:46:39;;;;;;;3.95;2.05;;;18.20;99.90;;;;;;5077949;28;20585;-69
2021/07/01 10:49:31;;;;;;;5.95;2.08;;;18.10;99.90;;;;;;5060679;28;20383;-68
2021/07/01 10:52:10;;;;;;;4.32;2.30;;;17.90;99.90;;;;;;5062310;28;20885;-67
2021/07/01 10:54:57;;;;;;;3.95;2.50;;;17.40;99.90;;;;;;5064300;28;20432;-68
2021/07/01 10:57:59;;;;;;;5.20;2.33;;;17.00;99.90;;;;;;5115184;27;20302;-68
2021/07/01 11:00:45;;;;;;;7.57;3.05;;;16.60;99.90;;;;;;5054391;28;20437;-67
2021/07/01 11:03:41;;;;;;;4.68;2.42;;;16.40;99.90;;;;;;5115430;27;20411;-67
2021/07/01 11:06:34;;;;;;;4.30;2.70;;;16.30;99.90;;;;;;5067753;28;20383;-67
2021/07/01 11:09:14;;;;;;;3.30;2.13;;;16.30;99.90;;;;;;5053410;28;20388;-68
2021/07/01 11:12:03;;;;;;;4.20;1.88;;;16.30;99.90;;;;;;5068076;28;20383;-68
2021/07/01 11:14:46;;;;;;;4.60;1.98;;;16.70;99.90;;;;;;5067418;28;20387;-67
2021/07/01 11:17:31;;;;;;;3.88;1.70;;;16.90;99.90;;;;;;5064627;28;20944;-67
2021/07/01 11:20:23;;;;;;;4.22;2.20;;;17.10;99.90;;;;;;5087975;27;20385;-68
2021/07/01 11:23:03;;;;;;;4.53;1.77;;;17.60;99.90;;;;;;5060913;28;20384;-68
2021/07/01 11:25:43;;;;;;;2.75;1.50;;;17.90;99.90;;;;;;5041074;28;20434;-68
2021/07/01 11:28:28;;;;;;;3.38;1.92;;;18.00;99.90;;;;;;5067429;28;20387;-69
2021/07/01 11:31:08;;;;;;;3.22;1.80;;;18.00;99.90;;;;;;5068089;28;20441;-68
2021/07/01 11:33:51;;;;;;;3.58;1.98;;;17.90;99.90;;;;;;5102539;27;20388;-68
2021/07/01 11:36:30;;;;;;;3.00;1.80;;;18.30;99.90;;;;;;5104296;27;20443;-69
2021/07/01 11:39:13;;;;;;;5.07;2.25;;;18.30;99.90;;;;;;5063532;28;20788;-69
2021/07/01 11:41:53;;;;;;;3.42;1.90;;;18.20;99.90;;;;;;5063063;28;20383;-68
2021/07/01 11:44:33;;;;;;;3.75;1.95;;;18.20;99.90;;;;;;5063343;28;20390;-69
2021/07/01 11:47:16;;;;;;;4.65;2.30;;;18.10;99.90;;;;;;5063027;28;20738;-68
2021/07/01 11:49:56;;;;;;;3.83;2.15;;;18.30;99.90;;;;;;5078210;28;20888;-68
2021/07/01 11:52:37;;;;;;;5.25;3.00;;;18.20;99.90;;;;;;5087152;28;20156;-68
2021/07/01 11:55:19;;;;;;;4.72;2.45;;;17.70;99.90;;;;;;5071862;28;20107;-69
2021/07/01 11:57:59;;;;;;;6.65;2.80;;;17.30;99.90;;;;;;5106101;27;20452;-68
2021/07/01 12:00:38;;;;;;;3.90;2.45;;;17.00;99.90;;;;;;5048540;28;20384;-68
2021/07/01 12:03:18;;;;;;;3.90;2.22;;;16.50;99.90;;;;;;5052073;28;20380;-69
2021/07/01 12:05:58;;;;;;;3.92;2.28;;;16.20;99.90;;;;;;5064393;28;20460;-68
2021/07/01 12:08:38;;;;;;;5.65;2.45;;;16.00;99.90;;;;;;5067882;28;20444;-69
2021/07/01 12:11:18;;;;;;;3.97;2.10;;;15.90;99.90;;;;;;5067786;28;20380;-67
2021/07/01 12:13:56;;;;;;;5.53;1.98;;;15.70;99.90;;;;;;5058912;28;20407;-68
2021/07/01 12:16:40;;;;;;;3.05;1.75;;;15.50;99.90;;;;;;5066786;28;20387;-68
2021/07/01 12:19:19;;;;;;;3.50;2.13;;;15.40;99.90;;;;;;5103332;27;20437;-67
2021/07/01 12:21:57;;;;;;;7.88;2.45;;;15.30;99.90;;;;;;5064447;28;20452;-68
2021/07/01 12:24:36;;;;;;;4.90;2.20;;;15.30;99.90;;;;;;5114793;27;20453;-67
2021/07/01 12:27:29;;;;;;;4.13;2.30;;;15.40;99.90;;;;;;5107767;27;20425;-68
2021/07/01 12:30:10;;;;;;;3.30;2.10;;;15.40;99.90;;;;;;5088251;28;20438;-67
2021/07/01 12:32:49;;;;;;;3.97;2.25;;;15.50;99.90;;;;;;5058087;28;20948;-68
2021/07/01 12:35:41;;;;;;;4.75;2.25;;;15.70;99.90;;;;;;5025080;27;20390;-68
2021/07/01 12:38:20;;;;;;;9.40;5.20;;;15.60;99.90;;;;;;5075560;27;20379;-68
2021/07/01 12:41:02;;;;;;;5.45;2.60;;;15.60;99.90;;;;;;5052504;28;20790;-69
2021/07/01 12:43:47;;;;;;;4.05;2.72;;;15.60;99.90;;;;;;5056699;28;20436;-68
2021/07/01 12:46:41;;;;;;;4.43;2.80;;;15.70;99.90;;;;;;5058270;28;20448;-67
2021/07/01 12:49:22;;;;;;;4.80;2.63;;;15.90;99.90;;;;;;5082886;28;20117;-67
2021/07/01 12:52:09;;;;;;;6.28;2.55;;;16.00;99.90;;;;;;5082785;28;20494;-68
2021/07/01 12:54:51;;;;;;;5.00;3.13;;;16.20;99.90;;;;;;5129349;27;20310;-68
2021/07/01 12:57:31;;;;;;;5.43;3.25;;;16.20;99.90;;;;;;5061662;28;20387;-68
2021/07/01 13:00:13;;;;;;;5.32;3.13;;;16.30;99.90;;;;;;5088202;28;20106;-69
2021/07/01 13:03:01;;;;;;;6.05;3.08;;;16.40;99.90;;;;;;5101776;27;20380;-68
2021/07/01 13:05:41;;;;;;;5.03;3.00;;;16.70;99.90;;;;;;5088599;28;20106;-68
2021/07/01 13:08:39;;;;;;;4.45;2.78;;;17.20;99.90;;;;;;5062191;28;20434;-69
2021/07/01 13:11:19;;;;;;;5.38;2.60;;;17.90;99.90;;;;;;5067243;28;20387;-67
2021/07/01 13:14:00;;;;;;;4.70;2.83;;;18.10;99.90;;;;;;5069108;28;20114;-67
2021/07/01 13:16:40;;;;;;;6.72;2.70;;;17.90;99.90;;;;;;5063195;28;20379;-69
2021/07/01 13:19:23;;;;;;;5.20;2.65;;;17.60;99.90;;;;;;5068081;28;20383;-68
2021/07/01 13:22:13;;;;;;;4.07;2.95;;;17.40;99.90;;;;;;5102979;27;20386;-69
2021/07/01 13:24:54;;;;;;;4.53;2.65;;;17.30;99.90;;;;;;5106755;27;20571;-66
2021/07/01 13:27:35;;;;;;;4.38;2.72;;;17.00;99.90;;;;;;5071114;28;20111;-69
2021/07/01 13:30:23;;;;;;;5.30;3.50;;;16.70;99.90;;;;;;5067674;28;20448;-69
2021/07/01 13:33:06;;;;;;;5.38;3.42;;;16.50;99.90;;;;;;5073781;28;20106;-69
2021/07/01 13:35:48;;;;;;;8.05;2.85;;;16.50;99.90;;;;;;5063371;28;20395;-68
2021/07/01 13:38:27;;;;;;;4.60;2.90;;;16.60;99.90;;;;;;5066303;28;20379;-68
2021/07/01 13:41:06;;;;;;;4.50;3.00;;;16.60;99.90;;;;;;5072405;28;20106;-68
2021/07/01 13:43:45;;;;;;;7.03;2.55;;;16.60;99.90;;;;;;5062101;28;20436;-69
2021/07/01 13:46:25;;;;;;;9.10;2.70;;;16.80;99.90;;;;;;5068196;28;20375;-68
2021/07/01 13:49:05;;;;;;;4.18;2.40;;;17.10;99.90;;;;;;5077010;28;20109;-68
2021/07/01 13:51:45;;;;;;;4.05;2.28;;;17.40;99.90;;;;;;5077346;28;20117;-69
2021/07/01 13:54:31;;;;;;;4.43;2.70;;;17.80;99.90;;;;;;5068202;28;20391;-68
2021/07/01 13:57:10;;;;;;;5.88;2.13;;;18.30;99.90;;;;;;5061907;28;20436;-68
2021/07/01 13:59:57;;;;;;;5.80;1.75;;;18.50;99.90;;;;;;5068388;28;20387;-69
2021/07/01 14:02:37;;;;;;;6.70;3.22;;;18.80;99.90;;;;;;5086679;27;20301;-69
2021/07/01 14:05:31;;;;;;;6.18;2.88;;;18.90;99.90;;;;;;5123338;27;20789;-69
2021/07/01 14:08:34;;;;;;;3.88;2.08;;;19.00;99.90;;;;;;5064462;28;20998;-68
2021/07/01 14:11:25;;;;;;;3.00;1.90;;;18.80;99.90;;;;;;5067152;28;20394;-68
2021/07/01 14:14:05;;;;;;;4.53;2.35;;;18.30;99.90;;;;;;5116434;27;20108;-69
2021/07/01 14:16:46;;;;;;;4.60;2.00;;;18.00;99.90;;;;;;5057440;28;20395;-69